Elmira, CA (95625)

11:01 PM PDT on March 25, 2017 (GMT -0700)
MUP651 | | Change Station
Active Advisory: Special Statement

Elev 59 ft 38.40 °N, 121.87 °W | Updated 6 hours ago

Clear
Clear
61.0 °F
Feels Like 61.0 °F
N
-
Wind Variable Wind from North

Today
High -- | Low -- °F
--% Chance of Precip.
Yesterday
High -- | Low -- °F
Precip. -- in
Pressure 30.09 in
Visibility 10.0 miles
Clouds Clear
Dew Point Not available.
Humidity Not available.
Rainfall 0.00 in
Snow Depth Not available.
7:02 AM 7:24 PM
Waning Crescent, 5% visible
METAR KVCB 260553Z AUTO 23004KT 10SM CLR 11/08 A3008 RMK AO2 SLP187 T01110078 10189 20100 58006
Pressure 30.09 in
Visibility 10.0 miles
Clouds Clear
Dew Point Not available.
Humidity Not available.
Rainfall 0.00 in
Snow Depth Not available.
7:02 AM 7:24 PM
Waning Crescent, 5% visible
METAR KVCB 260553Z AUTO 23004KT 10SM CLR 11/08 A3008 RMK AO2 SLP187 T01110078 10189 20100 58006

Get Your Daily Forecast Email!

Thanks for signing up!

Be on the lookout for a verification email in your inbox.

You'll start receiving severe weather alerts in your inbox..

×

10-Day Weather Forecast

Almanac

Astronomy

Mar. 25, 2017 Rise Set
Actual Time
Civil Twilight
Nautical Twilight
Astronomical Twilight
Moon
Length of Visible Light
Length of Day
Tomorrow will be .
, % of the Moon is Illuminated

Today's Extremes

State Highs State Lows

Community

WunderPhotos

Upload Photos

1,962,540 photos uploaded!

WunderBlog® & News

Nearby

Air Quality

  Air Quality AQ Index Pollutant
Not available.

Snow Depth

Station Depth Elevation

Earthquake Activity

City Distance Mag. Time & Date
Minimum magnitude displayed is 2.5.

Earthquake Activity

City Distance Mag. Time & Date
Minimum magnitude displayed is 2.5.

Coastal Water Temperatures

Place Temperature

Stations

Nearby Weather Stations

Station Location Temp. Windchill Dew Point Humidity Wind Precip. Elev Updated Type
                   

Watches & Warnings

Special Statement
Issued: 2:39 PM PDT Mar. 25, 2017 – National Weather Service

... More rain and mountain snow for the interior California Sunday
into Monday...

.Impacts...
*slick roadways in the Valley, Mountain snow may cause some
   travel delays.

.Forecast confidence...
*high, wet pattern.
*Medium, precipitation amounts and snow levels.

.Timing and strength...
*sunday into Monday with the heaviest precipitation Sunday
   night. Less than a quarter inch for the valley to between one
   half and an inch for the mountains.
*Total of 3 to 6 inches for the mountains above 4000 feet with
   up to 10 inches across the peaks. Light snow accumulations may
   occur down to near 3000 feet.
*Lowering snow levels Sunday night.